Tapachula International Airport
MMTP : rendu visible

Aérodrome :











RETROUVEZ-NOUS SUR...

 
LOGIN :

S'inscrire | Disclaimer

   EN    FR    IT 

 









Légende :    VFR   VFR Marginal   IFR   IFR Intensif   IFR Très Intensif
Visi : 
Plafond : 
>= 8 km
>= 3000ft
5 à 8 km
1000 à 3000 ft
1500m à 5 km
500 à 1000 ft
800 à 1500m
200 à 500 ft
< 800m
< 200 ft
Symboles :   Orages  Brouillard  Fortes neiges  Fortes précipitations  Vent > 20 kt






- Altitude de l'aérodrome : 97 ft
- Code IATA : TAP


MMTP - Tapachula International

DERNIER METAR :
  • 291343Z 06008KT 8SM OVC100 27/24 A2989 RMK 8/07/ HZY

METARs EXPIRÉS :
  • 291241Z 00000KT 7SM OVC100 25/25 A2988 RMK 8/07/ HZY RA DSNT NE
  • 291208Z RTD 08002KT 6SM OVC100 25/25 A2986 RMK SLP134 5//// 961 6//// 8/07/ HZY RA DSNT NE RTS

TAF TAF MMTP
Valide du 29 à 12h jusqu'au 30 à 18h UTC


290958Z 2912/3018 00000KT P6SM SCT030
TEMPO 2912/2915 5SM RA BKN030CB BKN080
FM291800 24015KT P6SM BKN025 BKN080
TEMPO 2922/3002 4SM TSRA BKN020
FM300600 00000KT P6SM SCT020 BKN070
FM301200 00000KT P6SM BKN020
FIR MMFR / Amérique du Nord



MET'MAP, la Météo Aéronautique d'un coup d'oeil ! - Copyright ORBIFLY Décembre 2007 - Disclaimer

ORBIFLY MET'MAP TEAM :

Programmation & Développement : Alexandra Zaïnal
Sur une idée originale de : Baudouin d'Aumeries
Assistance à la programmation : Marc-Olivier Méhu
Soutien technique & logistique : Manuel Goepfert

Contact : metmap@orbifly.com




SOURCES & CREDITS :

   NOAA       Earth
Advisory